MKJS/MBJ METAR and TAF weather

Enter ICAO airport designator
Station Type Date Time Source
MKJS METAR 2022/10/01 07:00 UTC NOAA

MKJS 010700Z 21005KT 9999 FEW022 26/22 Q1007


Station Type Date Time Source
MKJS Decoded METAR 2022/10/01 07:00 UTC NOAA

Montego Bay / Sangster, Jamaica (MKJS) 18-30N 077-55W 8M
Oct 01, 2022 - 03:00 AM EDT / 2022.10.01 0700 UTC
Wind: from the SSW (210 degrees) at 6 MPH (5 KT):0
Visibility: greater than 7 mile(s):0
Sky conditions: mostly clear
Temperature: 78 F (26 C)
Dew Point: 71 F (22 C)
Relative Humidity: 78%
Pressure (altimeter): 29.74 in. Hg (1007 hPa)
ob: MKJS 010700Z 21005KT 9999 FEW022 26/22 Q1007
cycle: 7

Station Type Date Time Source
MKJS TAF 2022/10/01 06:33 UTC NOAA

TAF MKJS 010515Z 0106/0206 VRB05KT 9999 FEW020 FEW022CB PROB30
TEMPO0108/0113 7000 SHRA BKN018 SCT020CB
TEMPO 0115/0124 7000 TSRA BKN018CB

Example: see airport list